createdAt,value
2019-02-26T00:00:51.934Z,72.74
2019-02-26T00:01:53.000Z,72.92
2019-02-26T00:02:52.995Z,73.11
2019-02-26T00:03:51.181Z,73.30
2019-02-26T00:04:53.521Z,73.40
2019-02-26T00:05:52.224Z,73.21
2019-02-26T00:06:51.838Z,72.83
2019-02-26T00:07:52.921Z,72.67
2019-02-26T00:08:53.323Z,72.58
2019-02-26T00:09:53.248Z,72.49
2019-02-26T00:10:54.731Z,72.11
2019-02-26T00:11:51.232Z,71.63
2019-02-26T00:12:51.230Z,71.72
2019-02-26T00:13:52.428Z,71.15
2019-02-26T00:14:52.923Z,71.91
2019-02-26T00:15:51.250Z,71.72
2019-02-26T00:16:51.250Z,71.91
2019-02-26T00:17:52.898Z,72.67
2019-02-26T00:18:51.274Z,72.96
2019-02-26T00:19:51.285Z,73.53
2019-02-26T00:20:51.279Z,75.21
2019-02-26T00:21:51.890Z,75.59
2019-02-26T00:22:52.962Z,75.87
2019-02-26T00:23:53.057Z,76.16
2019-02-26T00:24:51.295Z,75.87
2019-02-26T00:25:51.311Z,76.06
2019-02-26T00:26:51.313Z,75.87
2019-02-26T00:27:52.425Z,75.96
2019-02-26T00:28:51.330Z,75.68
2019-02-26T00:29:53.019Z,75.30
2019-02-26T00:30:51.330Z,74.92
2019-02-26T00:31:53.001Z,75.02
2019-02-26T00:32:53.114Z,75.21
2019-02-26T00:33:51.353Z,75.11
2019-02-26T00:34:53.082Z,74.63
2019-02-26T00:35:51.370Z,74.63
2019-02-26T00:36:51.380Z,74.63
2019-02-26T00:37:53.310Z,74.44
2019-02-26T00:38:51.395Z,73.88
2019-02-26T00:39:51.772Z,74.26
2019-02-26T00:40:51.404Z,73.49
2019-02-26T00:41:53.534Z,74.16
2019-02-26T00:42:54.351Z,74.07
2019-02-26T00:43:53.513Z,73.97
2019-02-26T00:44:53.635Z,74.35
2019-02-26T00:45:53.340Z,74.26
2019-02-26T00:46:53.416Z,73.78
2019-02-26T00:47:51.442Z,73.88
2019-02-26T00:48:51.446Z,75.02
2019-02-26T00:49:53.387Z,75.30
2019-02-26T00:50:52.265Z,75.59
2019-02-26T00:51:52.772Z,76.50
2019-02-26T00:52:52.322Z,76.50
2019-02-26T00:53:53.323Z,76.59
2019-02-26T00:54:53.598Z,76.31
2019-02-26T00:55:51.643Z,76.88
2019-02-26T00:56:51.495Z,76.97
2019-02-26T00:57:51.498Z,77.36
2019-02-26T00:58:51.506Z,78.11
2019-02-26T00:59:51.525Z,78.40
2019-02-26T01:00:51.516Z,77.64
2019-02-26T01:01:52.548Z,77.64
2019-02-26T01:02:51.538Z,76.78
2019-02-26T01:03:51.945Z,76.69
2019-02-26T01:04:51.540Z,76.59
2019-02-26T01:05:51.552Z,76.69
2019-02-26T01:06:51.556Z,76.69
2019-02-26T01:07:52.633Z,76.21
2019-02-26T01:08:51.554Z,76.21
2019-02-26T01:09:52.400Z,77.07
2019-02-26T01:10:51.575Z,76.40
2019-02-26T01:11:52.019Z,75.84
2019-02-26T01:12:51.599Z,75.55
2019-02-26T01:13:52.814Z,75.45
2019-02-26T01:14:51.607Z,75.93
2019-02-26T01:15:51.612Z,76.21
2019-02-26T01:16:51.620Z,75.93
2019-02-26T01:17:51.630Z,75.74
2019-02-26T01:18:53.195Z,75.84
2019-02-26T01:19:51.645Z,75.49
2019-02-26T01:20:52.583Z,75.40
2019-02-26T01:21:51.637Z,75.17
2019-02-26T01:22:51.642Z,75.36
2019-02-26T01:23:51.643Z,75.26
2019-02-26T01:24:51.955Z,75.84
2019-02-26T01:25:54.185Z,75.74
2019-02-26T01:27:53.223Z,75.84
2019-02-26T01:28:53.570Z,75.49
2019-02-26T01:29:53.526Z,75.40
2019-02-26T01:30:55.657Z,75.21
2019-02-26T01:31:51.693Z,75.49
2019-02-26T01:32:51.703Z,75.30
2019-02-26T01:33:52.965Z,75.30
2019-02-26T01:34:51.712Z,75.84
2019-02-26T01:35:52.938Z,76.78
2019-02-26T01:36:51.734Z,76.59
2019-02-26T01:37:53.664Z,76.97
2019-02-26T01:38:53.149Z,77.07
2019-02-26T01:39:52.218Z,77.55
2019-02-26T01:40:53.665Z,77.73
2019-02-26T01:41:54.063Z,78.50
2019-02-26T01:42:54.623Z,78.30
2019-02-26T01:43:51.760Z,78.78
2019-02-26T01:45:54.957Z,78.50
2019-02-26T01:46:53.346Z,79.06
2019-02-26T01:47:52.792Z,78.97
2019-02-26T01:48:53.058Z,79.16
2019-02-26T01:49:51.801Z,79.25
2019-02-26T01:50:52.594Z,80.11
2019-02-26T01:51:53.841Z,80.21
2019-02-26T01:52:52.351Z,80.96
2019-02-26T01:53:53.585Z,81.73
2019-02-26T01:54:53.566Z,81.54
2019-02-26T01:55:51.826Z,81.87
2019-02-26T01:56:53.405Z,81.97
2019-02-26T01:57:51.844Z,82.16
2019-02-26T01:58:56.540Z,82.16
2019-02-26T01:59:51.849Z,82.07
2019-02-26T02:00:55.333Z,81.78
2019-02-26T02:01:53.614Z,81.21
2019-02-26T02:02:51.862Z,81.87
2019-02-26T02:03:53.859Z,81.97
2019-02-26T02:04:51.894Z,82.54
2019-02-26T02:05:52.998Z,82.54
2019-02-26T02:06:51.896Z,82.26
2019-02-26T02:07:53.599Z,82.16
2019-02-26T02:08:53.566Z,82.54
2019-02-26T02:09:53.264Z,82.16
2019-02-26T02:10:56.334Z,82.26
2019-02-26T02:11:51.919Z,82.26
2019-02-26T02:12:55.215Z,81.87
2019-02-26T02:13:51.926Z,81.21
2019-02-26T02:14:51.930Z,81.87
2019-02-26T02:15:51.948Z,81.59
2019-02-26T02:16:51.939Z,81.59
2019-02-26T02:17:51.952Z,81.30
2019-02-26T02:18:53.571Z,80.83
2019-02-26T02:19:51.963Z,81.02
2019-02-26T02:20:51.974Z,80.93
2019-02-26T02:21:53.815Z,81.12
2019-02-26T02:22:51.972Z,80.55
2019-02-26T02:23:52.952Z,80.26
2019-02-26T02:24:53.948Z,80.55
2019-02-26T02:25:51.994Z,80.64
2019-02-26T02:26:53.553Z,81.12
2019-02-26T02:27:54.498Z,81.21
2019-02-26T02:28:52.009Z,80.93
2019-02-26T02:29:54.849Z,80.64
2019-02-26T02:30:52.015Z,80.45
2019-02-26T02:31:52.355Z,80.35
2019-02-26T02:32:55.082Z,79.69
2019-02-26T02:33:52.040Z,79.88
2019-02-26T02:34:52.047Z,79.97
2019-02-26T02:35:52.046Z,80.07
2019-02-26T02:36:52.044Z,80.21
2019-02-26T02:37:53.538Z,80.83
2019-02-26T02:38:52.064Z,80.64
2019-02-26T02:39:52.064Z,80.55
2019-02-26T02:40:54.754Z,80.45
2019-02-26T02:41:54.837Z,80.49
2019-02-26T02:42:52.089Z,80.40
2019-02-26T02:43:52.089Z,80.30
2019-02-26T02:44:52.801Z,80.30
2019-02-26T02:45:53.115Z,80.21
2019-02-26T02:46:52.103Z,80.77
2019-02-26T02:47:55.025Z,80.87
2019-02-26T02:48:52.118Z,81.16
2019-02-26T02:49:52.124Z,81.54
2019-02-26T02:50:52.176Z,81.54
2019-02-26T02:51:52.133Z,81.44
2019-02-26T02:52:53.596Z,81.44
2019-02-26T02:53:54.101Z,80.96
2019-02-26T02:54:52.150Z,80.96
2019-02-26T02:55:52.155Z,80.68
2019-02-26T02:56:52.159Z,80.87
2019-02-26T02:57:54.962Z,80.96
2019-02-26T02:58:52.171Z,80.87
2019-02-26T02:59:54.325Z,80.58
2019-02-26T03:00:54.058Z,81.16
2019-02-26T03:01:54.820Z,80.87
2019-02-26T03:02:53.117Z,80.77
2019-02-26T03:03:53.846Z,81.16
2019-02-26T03:04:52.200Z,81.25
2019-02-26T03:05:52.200Z,80.87
2019-02-26T03:06:53.009Z,80.49
2019-02-26T03:07:54.052Z,80.30
2019-02-26T03:08:53.524Z,80.40
2019-02-26T03:09:52.229Z,80.02
2019-02-26T03:10:52.226Z,79.83
2019-02-26T03:11:53.051Z,79.63
2019-02-26T03:12:55.156Z,79.63
2019-02-26T03:13:53.880Z,79.73
2019-02-26T03:14:52.245Z,79.44
2019-02-26T03:15:53.548Z,79.44
2019-02-26T03:16:53.434Z,79.44
2019-02-26T03:17:52.266Z,79.63
2019-02-26T03:18:52.269Z,79.63
2019-02-26T03:19:52.275Z,79.79
2019-02-26T03:20:53.820Z,80.26
2019-02-26T03:21:52.584Z,80.35
2019-02-26T03:22:52.289Z,80.26
2019-02-26T03:23:52.292Z,80.35
2019-02-26T03:24:54.379Z,80.55
2019-02-26T03:25:54.865Z,80.64
2019-02-26T03:26:52.304Z,80.64
2019-02-26T03:27:52.311Z,80.83
2019-02-26T03:28:53.271Z,81.12
2019-02-26T03:29:53.369Z,80.64
2019-02-26T03:30:52.327Z,80.83
2019-02-26T03:31:55.236Z,81.02
2019-02-26T03:32:58.257Z,81.40
2019-02-26T03:33:59.960Z,80.64
2019-02-26T03:34:52.351Z,79.88
2019-02-26T03:35:52.352Z,79.12
2019-02-26T03:36:52.354Z,79.03
2019-02-26T03:37:57.264Z,78.64
2019-02-26T03:38:54.790Z,78.17
2019-02-26T03:39:54.585Z,77.51
2019-02-26T03:40:54.689Z,77.22
2019-02-26T03:41:53.596Z,76.65
2019-02-26T03:42:52.388Z,76.27
2019-02-26T03:43:54.297Z,76.46
2019-02-26T03:44:52.397Z,76.37
2019-02-26T03:45:52.414Z,76.65
2019-02-26T03:46:52.411Z,76.84
2019-02-26T03:47:55.293Z,76.27
2019-02-26T03:48:52.429Z,77.51
2019-02-26T03:49:52.450Z,77.98
2019-02-26T03:50:52.435Z,77.98
2019-02-26T03:51:52.428Z,78.08
2019-02-26T03:52:52.436Z,78.17
2019-02-26T03:53:52.444Z,78.17
2019-02-26T03:54:52.444Z,78.27
2019-02-26T03:55:52.447Z,78.27
2019-02-26T03:56:52.455Z,78.17
2019-02-26T03:57:54.381Z,78.27
2019-02-26T03:58:56.964Z,78.08
2019-02-26T03:59:52.466Z,77.79
2019-02-26T04:00:52.467Z,77.98
2019-02-26T04:01:52.477Z,78.93
2019-02-26T04:02:52.486Z,79.55
2019-02-26T04:03:54.668Z,80.22
2019-02-26T04:04:54.255Z,80.98
2019-02-26T04:05:52.499Z,81.26
2019-02-26T04:06:52.502Z,81.65
2019-02-26T04:07:55.603Z,82.46
2019-02-26T04:08:53.585Z,82.93
2019-02-26T04:09:53.829Z,83.22
2019-02-26T04:10:53.700Z,83.59
2019-02-26T04:11:53.416Z,83.78
2019-02-26T04:12:55.303Z,83.88
2019-02-26T04:13:54.560Z,83.78
2019-02-26T04:14:52.544Z,84.26
2019-02-26T04:15:54.093Z,84.26
2019-02-26T04:16:52.549Z,83.88
2019-02-26T04:17:52.555Z,84.45
2019-02-26T04:18:52.561Z,84.45
2019-02-26T04:19:52.563Z,84.45
2019-02-26T04:20:52.567Z,83.78
2019-02-26T04:21:52.569Z,84.07
2019-02-26T04:22:56.026Z,83.78
2019-02-26T04:23:52.582Z,84.55
2019-02-26T04:24:54.930Z,84.36
2019-02-26T04:25:54.058Z,84.64
2019-02-26T04:26:52.599Z,84.55
2019-02-26T04:27:52.599Z,84.64
2019-02-26T04:28:52.698Z,84.36
2019-02-26T04:29:52.615Z,85.21
2019-02-26T04:30:52.613Z,84.74
2019-02-26T04:31:54.539Z,84.74
2019-02-26T04:32:52.625Z,85.02
2019-02-26T04:33:53.713Z,85.40
2019-02-26T04:34:54.624Z,85.30
2019-02-26T04:35:55.410Z,85.49
2019-02-26T04:36:52.638Z,85.02
2019-02-26T04:37:53.246Z,85.02
2019-02-26T04:38:53.225Z,84.92
2019-02-26T04:39:52.652Z,84.55
2019-02-26T04:40:55.437Z,84.17
2019-02-26T04:41:52.661Z,84.07
2019-02-26T04:42:52.664Z,83.88
2019-02-26T04:43:54.896Z,83.50
2019-02-26T04:44:55.187Z,83.22
2019-02-26T04:45:52.677Z,82.74
2019-02-26T04:46:53.926Z,82.65
2019-02-26T04:47:56.978Z,82.93
2019-02-26T04:48:52.696Z,82.65
2019-02-26T04:49:54.430Z,82.84
2019-02-26T04:50:52.699Z,83.31
2019-02-26T04:51:52.706Z,83.22
2019-02-26T04:52:52.709Z,83.40
2019-02-26T04:53:54.159Z,83.22
2019-02-26T04:54:52.717Z,83.16
2019-02-26T04:55:52.719Z,83.16
2019-02-26T04:56:52.735Z,82.69
2019-02-26T04:57:54.040Z,82.78
2019-02-26T04:58:52.740Z,82.31
2019-02-26T04:59:52.746Z,82.59
2019-02-26T05:00:52.747Z,82.59
2019-02-26T05:01:54.992Z,82.69
2019-02-26T05:02:52.757Z,82.69
2019-02-26T05:03:52.761Z,82.12
2019-02-26T05:04:52.770Z,82.12
2019-02-26T05:05:55.995Z,82.12
2019-02-26T05:06:52.771Z,81.74
2019-02-26T05:07:52.779Z,81.93
2019-02-26T05:08:52.782Z,82.12
2019-02-26T05:09:55.865Z,81.93
2019-02-26T05:10:55.029Z,82.12
2019-02-26T05:11:52.799Z,82.21
2019-02-26T05:12:56.170Z,82.31
2019-02-26T05:13:52.804Z,82.31
2019-02-26T05:14:52.813Z,82.69
2019-02-26T05:15:52.807Z,82.31
2019-02-26T05:16:52.821Z,82.69
2019-02-26T05:17:52.824Z,83.07
2019-02-26T05:18:55.011Z,82.88
2019-02-26T05:19:52.834Z,82.50
2019-02-26T05:20:52.849Z,82.50
2019-02-26T05:21:53.622Z,82.50
2019-02-26T05:22:54.680Z,82.50
2019-02-26T05:23:55.021Z,82.88
2019-02-26T05:24:52.946Z,82.69
2019-02-26T05:25:52.865Z,83.45
2019-02-26T05:26:52.870Z,85.25
2019-02-26T05:27:52.868Z,85.25
2019-02-26T05:28:52.876Z,86.30
2019-02-26T05:29:54.763Z,87.34
2019-02-26T05:30:52.881Z,87.82
2019-02-26T05:31:55.435Z,87.82
2019-02-26T05:32:56.604Z,88.57
2019-02-26T05:33:55.348Z,88.57
2019-02-26T05:34:52.896Z,88.39
2019-02-26T05:36:52.915Z,88.53
2019-02-26T05:37:55.486Z,88.81
2019-02-26T05:38:54.640Z,89.29
2019-02-26T05:39:54.566Z,89.76
2019-02-26T05:40:55.321Z,89.58
2019-02-26T05:41:54.990Z,90.52
2019-02-26T05:42:53.349Z,90.24
2019-02-26T05:43:57.842Z,90.33
2019-02-26T05:44:54.524Z,90.24
2019-02-26T05:45:54.864Z,89.86
2019-02-26T05:46:54.226Z,89.67
2019-02-26T05:47:54.733Z,89.86
2019-02-26T05:48:52.969Z,89.76
2019-02-26T05:49:52.967Z,89.76
2019-02-26T05:50:52.963Z,89.67
2019-02-26T05:51:53.490Z,90.05
2019-02-26T05:52:57.611Z,90.90
2019-02-26T05:53:52.985Z,91.09
2019-02-26T05:54:52.985Z,91.24
2019-02-26T05:55:54.183Z,91.71
2019-02-26T05:56:52.992Z,91.42
2019-02-26T05:57:52.999Z,91.24
2019-02-26T05:58:53.005Z,91.14
2019-02-26T05:59:53.008Z,91.24
2019-02-26T06:00:53.006Z,90.67
2019-02-26T06:01:55.435Z,90.57
2019-02-26T06:02:53.018Z,90.38
2019-02-26T06:03:53.014Z,90.48
2019-02-26T06:04:53.056Z,90.29
2019-02-26T06:05:55.627Z,90.00
2019-02-26T06:06:55.605Z,90.38
2019-02-26T06:07:53.061Z,90.57
2019-02-26T06:08:55.232Z,90.29
2019-02-26T06:09:55.725Z,90.10
2019-02-26T06:10:53.056Z,90.48
2019-02-26T06:11:53.053Z,90.95
2019-02-26T06:12:53.067Z,90.67
2019-02-26T06:13:55.536Z,90.67
2019-02-26T06:14:54.157Z,90.67
2019-02-26T06:15:55.226Z,90.95
2019-02-26T06:16:55.424Z,91.05
2019-02-26T06:17:53.931Z,91.14
2019-02-26T06:18:54.443Z,91.14
2019-02-26T06:19:53.083Z,91.24
2019-02-26T06:20:53.618Z,91.14
2019-02-26T06:21:54.810Z,91.14
2019-02-26T06:22:53.100Z,90.67
2019-02-26T06:23:53.103Z,91.24
2019-02-26T06:24:57.287Z,91.14
2019-02-26T06:25:55.157Z,90.90
2019-02-26T06:26:53.123Z,90.29
2019-02-26T06:27:53.128Z,90.38
2019-02-26T06:28:53.121Z,90.29
2019-02-26T06:29:57.250Z,90.67
2019-02-26T06:30:55.044Z,90.86
2019-02-26T06:31:53.142Z,90.86
2019-02-26T06:32:53.139Z,91.05
2019-02-26T06:33:53.146Z,90.95
2019-02-26T06:34:53.163Z,90.95
2019-02-26T06:35:54.800Z,91.14
2019-02-26T06:36:53.308Z,90.95
2019-02-26T06:37:53.163Z,90.76
2019-02-26T06:38:54.164Z,90.48
2019-02-26T06:39:55.659Z,90.86
2019-02-26T06:40:53.173Z,90.86
2019-02-26T06:41:53.173Z,90.86
2019-02-26T06:42:53.185Z,90.67
2019-02-26T06:43:54.967Z,90.71
2019-02-26T06:44:53.189Z,90.81
2019-02-26T06:45:53.189Z,90.38
2019-02-26T06:46:53.197Z,90.62
2019-02-26T06:47:54.609Z,90.71
2019-02-26T06:48:53.203Z,90.43
2019-02-26T06:49:53.210Z,90.52
2019-02-26T06:50:55.177Z,90.52
2019-02-26T06:51:54.315Z,90.43
2019-02-26T06:52:53.222Z,90.52
2019-02-26T06:53:54.267Z,90.24
2019-02-26T06:54:56.889Z,90.14
2019-02-26T06:55:53.235Z,90.62
2019-02-26T06:56:53.260Z,90.52
2019-02-26T06:57:55.190Z,89.67
2019-02-26T06:58:53.248Z,90.62
2019-02-26T06:59:55.509Z,90.33
2019-02-26T07:00:55.368Z,89.86
2019-02-26T07:01:55.597Z,89.67
2019-02-26T07:02:53.264Z,90.43
2019-02-26T07:03:53.858Z,90.33
2019-02-26T07:04:53.273Z,90.43
2019-02-26T07:05:53.279Z,90.05
2019-02-26T07:06:55.220Z,90.24
2019-02-26T07:07:56.551Z,90.05
2019-02-26T07:08:53.579Z,89.58
2019-02-26T07:09:53.296Z,90.05
2019-02-26T07:10:53.303Z,89.39
2019-02-26T07:11:53.307Z,89.76
2019-02-26T07:12:53.313Z,89.20
2019-02-26T07:13:53.895Z,89.48
2019-02-26T07:14:55.345Z,89.62
2019-02-26T07:15:53.326Z,90.00
2019-02-26T07:16:53.326Z,89.62
2019-02-26T07:17:53.337Z,89.43
2019-02-26T07:18:53.332Z,89.43
2019-02-26T07:19:55.470Z,88.86
2019-02-26T07:20:57.251Z,88.86
2019-02-26T07:21:53.351Z,88.10
2019-02-26T07:22:53.360Z,88.39
2019-02-26T07:23:54.598Z,88.01
2019-02-26T07:24:54.011Z,87.82
2019-02-26T07:25:53.368Z,87.43
2019-02-26T07:26:53.381Z,87.15
2019-02-26T07:27:54.201Z,86.58
2019-02-26T07:28:53.381Z,85.96
2019-02-26T07:29:53.388Z,86.24
2019-02-26T07:30:53.393Z,85.68
2019-02-26T07:31:54.106Z,85.86
2019-02-26T07:32:53.403Z,85.86
2019-02-26T07:33:55.739Z,85.58
2019-02-26T07:34:53.415Z,85.58
2019-02-26T07:35:56.387Z,85.58
2019-02-26T07:36:53.414Z,85.77
2019-02-26T07:37:54.535Z,86.30
2019-02-26T07:38:56.012Z,86.49
2019-02-26T07:39:53.435Z,87.15
2019-02-26T07:40:54.316Z,87.62
2019-02-26T07:41:54.400Z,88.01
2019-02-26T07:42:53.449Z,88.76
2019-02-26T07:43:54.709Z,88.20
2019-02-26T07:44:53.462Z,88.39
2019-02-26T07:45:53.474Z,88.01
2019-02-26T07:46:53.472Z,87.72
2019-02-26T07:47:55.981Z,87.29
2019-02-26T07:48:53.962Z,87.01
2019-02-26T07:49:56.476Z,86.72
2019-02-26T07:50:53.507Z,86.72
2019-02-26T07:51:55.512Z,86.82
2019-02-26T07:52:55.250Z,86.91
2019-02-26T07:53:54.354Z,86.53
2019-02-26T07:54:53.546Z,86.91
2019-02-26T07:55:53.558Z,86.34
2019-02-26T07:56:55.111Z,86.34
2019-02-26T07:57:53.588Z,85.39
2019-02-26T07:58:56.924Z,85.62
2019-02-26T07:59:53.618Z,85.62
2019-02-26T08:00:53.611Z,85.62
2019-02-26T08:01:53.623Z,85.34
2019-02-26T08:02:56.389Z,85.53
2019-02-26T08:03:53.651Z,84.95
2019-02-26T08:04:53.659Z,85.43
2019-02-26T08:05:53.671Z,85.00
2019-02-26T08:06:56.270Z,84.09
2019-02-26T08:07:56.268Z,82.19
2019-02-26T08:08:53.723Z,79.94
2019-02-26T08:09:53.725Z,78.27
2019-02-26T08:10:53.734Z,76.75
2019-02-26T08:11:53.747Z,74.98
2019-02-26T08:12:53.759Z,73.65
2019-02-26T08:13:54.319Z,72.63
2019-02-26T08:14:53.785Z,71.77
2019-02-26T08:15:55.137Z,70.95
2019-02-26T08:16:56.067Z,70.28
2019-02-26T08:17:57.554Z,69.43
2019-02-26T08:18:54.726Z,68.95
2019-02-26T08:20:15.072Z,68.12
2019-02-26T08:20:56.887Z,68.03
2019-02-26T08:21:55.016Z,67.55
2019-02-26T08:22:54.715Z,66.98
2019-02-26T08:23:53.917Z,66.92
2019-02-26T08:24:55.524Z,66.06
2019-02-26T08:25:55.654Z,66.06
2019-02-26T08:26:53.967Z,65.39
2019-02-26T08:27:55.970Z,65.30
2019-02-26T08:28:53.991Z,65.33
2019-02-26T08:29:56.023Z,65.23
2019-02-26T08:30:55.235Z,64.85
2019-02-26T08:31:54.590Z,64.37
2019-02-26T08:32:56.107Z,64.18
2019-02-26T08:33:54.072Z,63.64
2019-02-26T08:34:54.099Z,63.26
2019-02-26T08:35:56.145Z,62.68
2019-02-26T08:36:54.116Z,62.04
2019-02-26T08:37:54.133Z,61.47
2019-02-26T08:38:56.488Z,61.09
2019-02-26T08:39:57.421Z,60.33
2019-02-26T08:40:54.191Z,59.84
2019-02-26T08:41:54.200Z,59.97
2019-02-26T08:42:54.212Z,59.69
2019-02-26T08:43:56.299Z,59.59
2019-02-26T08:44:55.906Z,59.20
2019-02-26T08:45:54.259Z,58.92
2019-02-26T08:46:54.279Z,58.92
2019-02-26T08:47:54.298Z,58.73
2019-02-26T08:48:54.312Z,58.34
2019-02-26T08:49:54.325Z,57.87
2019-02-26T08:50:55.836Z,58.12
2019-02-26T08:51:54.352Z,60.07
2019-02-26T08:52:56.241Z,62.71
2019-02-26T08:53:55.320Z,64.78
2019-02-26T08:54:54.407Z,65.83
2019-02-26T08:55:56.278Z,66.85
2019-02-26T08:56:54.463Z,67.61
2019-02-26T08:57:56.404Z,68.18
2019-02-26T08:58:54.472Z,68.09
2019-02-26T08:59:54.711Z,68.18
2019-02-26T09:00:54.503Z,68.18
2019-02-26T09:01:54.522Z,68.57
2019-02-26T09:02:56.710Z,68.18
2019-02-26T09:03:55.825Z,68.70
2019-02-26T09:04:54.560Z,68.32
2019-02-26T09:05:57.013Z,67.74
2019-02-26T09:06:55.451Z,67.68
2019-02-26T09:07:54.622Z,66.63
2019-02-26T09:08:55.532Z,66.82
2019-02-26T09:09:57.279Z,66.53
2019-02-26T09:10:54.673Z,66.19
2019-02-26T09:11:55.911Z,65.71
2019-02-26T09:12:54.706Z,65.80
2019-02-26T09:13:56.335Z,65.04
2019-02-26T09:14:54.739Z,65.14
2019-02-26T09:15:55.610Z,65.04
2019-02-26T09:16:56.898Z,65.14
2019-02-26T09:17:54.788Z,64.47
2019-02-26T09:18:54.816Z,64.40
2019-02-26T09:20:06.437Z,64.12
2019-02-26T09:20:54.838Z,63.19
2019-02-26T09:21:54.917Z,62.33
2019-02-26T09:22:56.477Z,60.86
2019-02-26T09:23:56.915Z,59.84
2019-02-26T09:24:56.840Z,58.44
2019-02-26T09:25:57.173Z,56.93
2019-02-26T09:26:57.493Z,55.49
2019-02-26T09:27:54.956Z,54.82
2019-02-26T09:28:57.081Z,54.66
2019-02-26T09:29:54.995Z,53.75
2019-02-26T09:30:56.301Z,52.43
2019-02-26T09:31:55.026Z,50.15
2019-02-26T09:32:55.044Z,49.02
2019-02-26T09:33:55.057Z,47.51
2019-02-26T09:34:56.848Z,47.15
2019-02-26T09:35:56.729Z,46.26
2019-02-26T09:36:55.543Z,47.03
2019-02-26T09:37:58.392Z,46.93
2019-02-26T09:38:55.146Z,45.80
2019-02-26T09:39:57.370Z,45.15
2019-02-26T09:40:56.967Z,44.21
2019-02-26T09:41:57.012Z,43.65
2019-02-26T09:42:58.152Z,43.17
2019-02-26T09:43:55.238Z,42.80
2019-02-26T09:44:55.936Z,41.94
2019-02-26T09:45:55.266Z,41.46
2019-02-26T09:46:57.273Z,41.19
2019-02-26T09:47:57.774Z,41.09
2019-02-26T09:48:55.325Z,40.70
2019-02-26T09:49:56.181Z,40.24
2019-02-26T09:50:55.357Z,39.95
2019-02-26T09:51:56.836Z,39.57
2019-02-26T09:52:58.239Z,39.20
2019-02-26T09:53:56.592Z,38.91
2019-02-26T09:54:55.448Z,38.93
2019-02-26T09:55:55.448Z,39.12
2019-02-26T09:56:55.473Z,38.45
2019-02-26T09:57:55.477Z,37.87
2019-02-26T09:58:55.498Z,37.79
2019-02-26T09:59:58.162Z,37.30
2019-02-26T10:00:55.534Z,37.02
2019-02-26T10:01:56.526Z,36.53
2019-02-26T10:02:55.579Z,36.65
2019-02-26T10:03:55.969Z,36.74
2019-02-26T10:04:55.618Z,36.16
2019-02-26T10:05:57.739Z,36.08
2019-02-26T10:06:55.639Z,35.89
2019-02-26T10:07:58.022Z,35.50
2019-02-26T10:08:56.166Z,35.33
2019-02-26T10:09:55.706Z,34.84
2019-02-26T10:10:57.651Z,34.75
2019-02-26T10:11:55.735Z,34.55
2019-02-26T10:12:57.323Z,34.28
2019-02-26T10:13:55.771Z,33.99
2019-02-26T10:14:59.589Z,34.09
2019-02-26T10:15:58.255Z,33.89
2019-02-26T10:16:57.008Z,33.89
2019-02-26T10:17:58.310Z,33.31
2019-02-26T10:18:56.805Z,33.33
2019-02-26T10:19:56.968Z,33.14
2019-02-26T10:20:56.009Z,32.65
2019-02-26T10:21:57.274Z,32.47
2019-02-26T10:22:57.815Z,32.09
2019-02-26T10:23:56.709Z,32.18
2019-02-26T10:24:56.000Z,32.20
2019-02-26T10:25:57.817Z,32.20
2019-02-26T10:26:58.659Z,31.81
2019-02-26T10:27:56.019Z,32.10
2019-02-26T10:28:59.076Z,31.91
2019-02-26T10:29:56.051Z,31.42
2019-02-26T10:30:57.009Z,31.23
2019-02-26T10:31:56.803Z,31.05
2019-02-26T10:32:56.116Z,31.05
2019-02-26T10:33:56.144Z,30.58
2019-02-26T10:34:56.152Z,30.97
2019-02-26T10:35:56.168Z,30.97
2019-02-26T10:36:56.188Z,30.77
2019-02-26T10:37:57.056Z,30.40
2019-02-26T10:38:57.869Z,30.48
2019-02-26T10:39:56.261Z,30.68
2019-02-26T10:40:58.845Z,30.68
2019-02-26T10:41:56.285Z,29.72
2019-02-26T10:42:56.299Z,28.96
2019-02-26T10:43:56.331Z,28.47
2019-02-26T10:44:56.510Z,27.90
2019-02-26T10:45:56.359Z,28.02
2019-02-26T10:46:58.330Z,28.11
2019-02-26T10:47:58.749Z,27.92
2019-02-26T10:48:56.428Z,27.53
2019-02-26T10:49:56.547Z,27.33
2019-02-26T10:50:56.554Z,27.34
2019-02-26T10:51:57.738Z,27.34
2019-02-26T10:53:01.421Z,26.78
2019-02-26T10:53:57.530Z,26.39
2019-02-26T10:54:56.530Z,25.90
2019-02-26T10:55:56.544Z,25.62
2019-02-26T10:56:57.420Z,25.43
2019-02-26T10:57:58.613Z,25.35
2019-02-26T10:59:01.937Z,24.88
2019-02-26T10:59:59.175Z,24.58
2019-02-26T11:00:59.405Z,24.30
2019-02-26T11:01:58.422Z,23.23
2019-02-26T11:02:56.685Z,23.23
2019-02-26T11:03:56.721Z,22.64
2019-02-26T11:04:56.723Z,22.94
2019-02-26T11:05:56.734Z,22.94
2019-02-26T11:06:56.747Z,22.85
2019-02-26T11:07:59.794Z,22.66
2019-02-26T11:09:01.121Z,22.64
2019-02-26T11:09:58.905Z,22.05
2019-02-26T11:10:56.827Z,21.56
2019-02-26T11:11:58.362Z,21.37
2019-02-26T11:12:59.504Z,22.55
2019-02-26T11:13:56.880Z,22.45
2019-02-26T11:14:58.636Z,22.55
2019-02-26T11:15:59.835Z,22.16
2019-02-26T11:16:56.947Z,21.75
2019-02-26T11:17:56.967Z,20.98
2019-02-26T11:18:58.807Z,20.90
2019-02-26T11:19:58.519Z,20.12
2019-02-26T11:20:59.291Z,19.83
2019-02-26T11:21:58.633Z,19.12
2019-02-26T11:22:57.083Z,20.06
2019-02-26T11:23:58.505Z,20.45
2019-02-26T11:24:58.557Z,19.98
2019-02-26T11:25:57.129Z,20.09
2019-02-26T11:26:57.181Z,20.01
2019-02-26T11:27:57.168Z,19.63
2019-02-26T11:28:57.182Z,19.34
2019-02-26T11:29:59.470Z,18.47
2019-02-26T11:30:57.222Z,17.79
2019-02-26T11:31:57.239Z,17.10
2019-02-26T11:33:02.150Z,16.62
2019-02-26T11:34:00.109Z,16.22
2019-02-26T11:34:58.018Z,16.03
2019-02-26T11:35:59.538Z,16.42
2019-02-26T11:36:58.493Z,15.73
2019-02-26T11:37:58.118Z,15.53
2019-02-26T11:38:59.909Z,16.20
2019-02-26T11:39:58.281Z,16.69
2019-02-26T11:40:57.427Z,16.61
2019-02-26T11:42:00.722Z,16.23
2019-02-26T11:42:59.802Z,15.76
2019-02-26T11:43:57.480Z,15.28
2019-02-26T11:44:57.508Z,14.89
2019-02-26T11:45:59.156Z,15.08
2019-02-26T11:46:58.246Z,14.69
2019-02-26T11:48:00.368Z,14.98
2019-02-26T11:48:57.679Z,15.47
2019-02-26T11:49:59.516Z,15.08
2019-02-26T11:51:00.756Z,15.17
2019-02-26T11:51:57.639Z,15.17
2019-02-26T11:52:57.660Z,15.47
2019-02-26T11:54:00.125Z,15.47
2019-02-26T11:54:58.825Z,14.60
2019-02-26T11:55:59.909Z,14.42
2019-02-26T11:56:57.738Z,14.41
2019-02-26T11:57:57.762Z,14.22
2019-02-26T11:58:57.779Z,14.31
2019-02-26T11:59:59.422Z,14.03
2019-02-26T12:01:59.092Z,14.12
2019-02-26T12:02:57.873Z,14.51
2019-02-26T12:04:02.511Z,14.42
2019-02-26T12:04:59.887Z,13.94
2019-02-26T12:06:00.554Z,13.71
2019-02-26T12:06:58.499Z,14.48
2019-02-26T12:07:58.825Z,15.24
2019-02-26T12:08:57.982Z,15.91
2019-02-26T12:10:01.878Z,15.99
2019-02-26T12:11:03.343Z,16.37
2019-02-26T12:11:58.525Z,17.06
2019-02-26T12:13:00.035Z,16.22
2019-02-26T12:13:58.081Z,15.45
2019-02-26T12:14:58.107Z,14.40
2019-02-26T12:15:58.134Z,13.92
2019-02-26T12:16:58.151Z,13.72
2019-02-26T12:17:58.771Z,13.31
2019-02-26T12:18:58.922Z,13.71
2019-02-26T12:20:00.306Z,13.02
2019-02-26T12:21:00.007Z,13.68
2019-02-26T12:22:01.283Z,14.16
2019-02-26T12:22:58.261Z,14.92
2019-02-26T12:24:00.577Z,15.68
2019-02-26T12:24:59.984Z,15.98
2019-02-26T12:26:01.020Z,16.00
2019-02-26T12:26:58.353Z,15.44
2019-02-26T12:28:00.237Z,14.48
2019-02-26T12:28:59.580Z,14.01
2019-02-26T12:29:58.419Z,13.43
2019-02-26T12:31:00.768Z,12.76
2019-02-26T12:32:01.067Z,12.18
2019-02-26T12:32:58.483Z,12.08
2019-02-26T12:33:58.499Z,12.08
2019-02-26T12:34:58.525Z,11.79
2019-02-26T12:35:59.522Z,12.08
2019-02-26T12:37:02.069Z,11.89
2019-02-26T12:38:59.936Z,11.70
2019-02-26T12:39:58.622Z,11.21
2019-02-26T12:40:58.642Z,11.69
2019-02-26T12:41:58.669Z,11.99
2019-02-26T12:42:58.686Z,11.49
2019-02-26T12:44:00.849Z,11.30
2019-02-26T12:45:01.847Z,11.40
2019-02-26T12:45:59.425Z,11.02
2019-02-26T12:47:00.487Z,10.93
2019-02-26T12:47:58.788Z,10.44
2019-02-26T12:48:58.811Z,10.15
2019-02-26T12:50:01.984Z,9.55
2019-02-26T12:51:01.467Z,10.03
2019-02-26T12:51:59.928Z,10.42
2019-02-26T12:52:58.904Z,11.02
2019-02-26T12:54:00.539Z,10.92
2019-02-26T12:55:00.687Z,10.72
2019-02-26T12:56:01.975Z,10.61
2019-02-26T12:57:00.638Z,10.71
2019-02-26T12:57:59.626Z,10.88